Time;durP1;ratioP1;P1;durP2;ratioP2;P2;SDS_P1;SDS_P2;PMS_P1;PMS_P2;Temp;Humidity;BMP_temperature;BMP_pressure;BME280_temperature;BME280_humidity;BME280_pressure;Samples;Min_cycle;Max_cycle;Signal;HPM_P1;HPM_P2
2022/05/16 00:02:15;;;;;;;28.50;12.90;;;;;;;9.83;56.94;98956.33;434239;1268;97496;-46
2022/05/16 00:12:20;;;;;;;;;;;;;;;9.60;57.16;98955.70;434275;1268;109983;-46
2022/05/16 00:22:27;;;;;;;22.10;9.30;;;;;;;9.52;57.87;98957.98;434237;1266;109426;-42
2022/05/16 00:32:34;;;;;;;18.20;10.30;;;;;;;9.54;58.03;98960.84;434230;1268;98087;-45
2022/05/16 00:42:42;;;;;;;22.60;12.60;;;;;;;9.48;58.37;98965.35;434267;1268;108808;-44
2022/05/16 00:52:52;;;;;;;27.50;14.90;;;;;;;9.11;58.34;98960.55;434257;1267;96898;-45
2022/05/16 01:13:24;;;;;;;21.40;10.20;;;;;;;8.81;59.45;98967.77;434420;1258;108944;-44
2022/05/16 01:23:36;;;;;;;20.60;8.10;;;;;;;8.87;59.62;98966.56;433561;1267;100243;-43
2022/05/16 01:33:44;;;;;;;14.90;7.30;;;;;;;8.84;59.95;98963.82;433710;1267;111763;-47
2022/05/16 01:54:02;;;;;;;20.00;9.80;;;;;;;8.60;60.27;98968.25;433760;1267;96612;-46
2022/05/16 02:04:09;;;;;;;17.50;9.60;;;;;;;8.30;60.68;98975.91;433585;1269;108599;-47
2022/05/16 02:14:16;;;;;;;13.40;7.20;;;;;;;8.03;61.02;98982.38;433756;1267;96653;-44
2022/05/16 02:34:48;;;;;;;15.70;8.50;;;;;;;7.73;61.28;98990.09;433628;1267;108627;-44
2022/05/16 02:44:55;;;;;;;10.20;6.80;;;;;;;7.49;62.00;98981.85;433714;1267;97477;-44
2022/05/16 02:55:02;;;;;;;14.60;6.60;;;;;;;7.84;62.61;98973.89;433627;1267;109976;-45
2022/05/16 03:05:11;;;;;;;18.10;9.30;;;;;;;7.94;62.70;98978.63;433715;1267;97498;-45
2022/05/16 03:15:19;;;;;;;29.60;15.50;;;;;;;7.93;62.83;98985.52;433834;1267;111171;-43
2022/05/16 03:25:27;;;;;;;20.40;13.10;;;;;;;7.90;62.76;98996.73;433739;1267;108648;-42
2022/05/16 03:35:35;;;;;;;19.80;11.70;;;;;;;8.23;63.07;98996.55;433683;1267;97929;-44
2022/05/16 03:45:43;;;;;;;22.50;11.70;;;;;;;9.16;62.71;98994.39;433566;1266;110829;-46
2022/05/16 03:55:51;;;;;;;26.00;12.10;;;;;;;11.00;61.64;98986.67;433753;1267;108765;-46
2022/05/16 04:05:58;;;;;;;28.00;10.90;;;;;;;13.02;60.26;98982.44;434020;1267;97524;-45
2022/05/16 04:16:06;;;;;;;20.80;10.70;;;;;;;14.97;58.30;98981.25;433669;1267;111137;-41
2022/05/16 04:26:14;;;;;;;15.80;9.30;;;;;;;16.57;56.22;98976.62;433808;1267;108768;-46
2022/05/16 04:36:21;;;;;;;14.30;7.80;;;;;;;17.69;54.52;98977.58;433674;1267;97914;-43
2022/05/16 04:46:29;;;;;;;22.70;6.80;;;;;;;18.67;53.31;98977.50;433651;1267;111191;-45
2022/05/16 04:56:37;;;;;;;34.50;8.00;;;;;;;19.35;51.50;98975.29;433785;1267;108284;-46
2022/05/16 05:06:44;;;;;;;8.40;5.10;;;;;;;19.40;50.18;98974.14;433714;1267;97445;-44
2022/05/16 05:16:50;;;;;;;19.10;4.80;;;;;;;19.79;49.17;98977.41;433841;1267;111110;-44
2022/05/16 05:26:58;;;;;;;8.60;5.00;;;;;;;19.79;48.61;98979.50;433706;1267;108894;-41
2022/05/16 05:37:04;;;;;;;9.70;4.40;;;;;;;19.91;47.90;98982.30;433788;1267;97776;-45
2022/05/16 05:47:10;;;;;;;9.10;4.80;;;;;;;19.74;47.14;98986.78;433802;1267;109970;-43
2022/05/16 05:57:18;;;;;;;10.00;5.20;;;;;;;19.43;46.05;98990.69;433877;1267;108856;-44
2022/05/16 06:07:25;;;;;;;8.60;4.20;;;;;;;19.91;46.25;98987.00;433698;1267;97910;-40
2022/05/16 06:17:35;;;;;;;13.10;4.80;;;;;;;20.03;45.31;98992.07;433899;1267;111134;-41
2022/05/16 06:27:42;;;;;;;3.40;1.90;;;;;;;20.56;45.02;98989.96;433699;1267;107780;-45
2022/05/16 06:37:50;;;;;;;5.60;2.50;;;;;;;21.04;43.62;98986.19;433667;1267;97918;-45
2022/05/16 06:47:57;;;;;;;7.30;2.60;;;;;;;21.42;42.92;98986.77;433683;1267;110886;-40
2022/05/16 06:58:05;;;;;;;6.20;3.10;;;;;;;22.04;42.42;98992.48;433812;1267;108679;-42
2022/05/16 07:18:19;;;;;;;6.80;1.70;;;;;;;22.75;40.48;98995.25;433772;1267;111029;-41
2022/05/16 07:28:27;;;;;;;12.10;2.30;;;;;;;22.93;39.60;98989.73;433849;1267;108788;-44
2022/05/16 07:38:34;;;;;;;5.80;1.90;;;;;;;22.79;38.98;98991.77;433747;1267;97886;-45
2022/05/16 07:58:49;;;;;;;4.10;2.40;;;;;;;23.19;38.24;98982.20;433844;1267;108012;-41
2022/05/16 08:19:20;;;;;;;3.20;1.60;;;;;;;24.15;37.08;98986.73;433623;1267;111132;-41
2022/05/16 08:29:28;;;;;;;4.20;1.90;;;;;;;24.31;36.53;98980.33;433896;1267;108855;-49
2022/05/16 08:50:02;;;;;;;5.50;2.10;;;;;;;23.43;34.09;98984.95;433804;1267;111040;-41
2022/05/16 09:00:14;;;;;;;2.90;1.60;;;;;;;23.52;34.69;98978.91;433607;1267;108594;-47
2022/05/16 09:10:22;;;;;;;2.20;1.60;;;;;;;23.83;34.58;98976.46;433698;1267;97907;-45
2022/05/16 09:20:35;;;;;;;4.50;1.50;;;;;;;23.76;33.75;98984.30;433303;1269;111125;-46
2022/05/16 09:30:45;;;;;;;2.60;1.50;;;;;;;23.47;33.30;98980.77;433690;1267;108854;-45
2022/05/16 09:40:55;;;;;;;7.20;1.60;;;;;;;23.54;33.40;98981.58;433755;1267;96695;-42
2022/05/16 09:51:05;;;;;;;18.70;2.50;;;;;;;23.61;33.27;98983.48;433374;1270;111124;-41
2022/05/16 10:01:13;;;;;;;8.60;1.60;;;;;;;23.55;33.22;98979.71;433846;1267;108865;-42
2022/05/16 10:11:18;;;;;;;4.40;1.90;;;;;;;23.53;32.43;98977.55;433813;1267;97384;-47
2022/05/16 10:21:25;;;;;;;3.50;1.50;;;;;;;23.57;32.27;98976.88;433657;1267;108565;-42
2022/05/16 10:42:04;;;;;;;3.80;2.10;;;;;;;23.83;32.01;98953.84;433744;1268;111045;-42
2022/05/16 10:52:15;;;;;;;5.70;1.60;;;;;;;23.41;32.14;98950.93;433326;1267;107285;-43
2022/05/16 11:02:22;;;;;;;4.60;1.50;;;;;;;23.59;32.36;98944.42;433460;1270;97196;-43
2022/05/16 11:12:31;;;;;;;5.40;2.10;;;;;;;23.87;31.83;98933.08;433814;1268;111164;-45
2022/05/16 11:22:37;;;;;;;31.70;3.60;;;;;;;24.20;31.07;98922.36;433763;1268;108942;-45
2022/05/16 11:32:54;;;;;;;5.00;1.50;;;;;;;23.98;30.79;98926.98;433767;1267;97887;-41
2022/05/16 11:43:01;;;;;;;4.10;1.50;;;;;;;24.03;30.70;98925.70;433699;1268;111029;-43
2022/05/16 11:53:10;;;;;;;4.30;1.30;;;;;;;23.85;30.42;98923.05;433316;1270;108866;-50
2022/05/16 12:13:23;;;;;;;4.10;1.30;;;;;;;23.97;30.42;98913.89;433855;1268;110026;-41
2022/05/16 12:23:59;;;;;;;10.30;2.40;;;;;;;23.92;30.19;98911.09;433763;1268;108856;-42
2022/05/16 12:34:07;;;;;;;6.80;1.80;;;;;;;23.82;29.51;98901.67;433858;1268;98053;-43
2022/05/16 12:55:57;;;;;;;10.00;2.00;;;;;;;23.93;29.00;98880.77;433737;1268;107768;-44
2022/05/16 13:06:11;;;;;;;5.60;2.50;;;;;;;23.94;29.53;98872.32;433138;1269;97693;-45
2022/05/16 13:16:27;;;;;;;12.30;1.90;;;;;;;23.78;30.11;98847.84;433730;1268;111036;-44
2022/05/16 13:37:02;;;;;;;6.90;1.10;;;;;;;23.45;29.36;98842.69;433610;1268;97467;-43
2022/05/16 13:57:16;;;;;;;10.90;2.30;;;;;;;23.36;29.78;98832.05;433535;1267;108666;-47
2022/05/16 14:07:26;;;;;;;4.30;1.70;;;;;;;23.32;29.92;98820.46;433658;1268;97063;-42
2022/05/16 14:17:35;;;;;;;9.00;2.20;;;;;;;23.22;30.12;98815.48;433563;1268;108992;-41
2022/05/16 14:27:43;;;;;;;4.80;1.60;;;;;;;23.14;29.67;98804.50;433715;1268;96692;-42
2022/05/16 14:37:49;;;;;;;23.30;2.50;;;;;;;22.87;29.30;98791.02;433689;1268;110837;-45
2022/05/16 14:47:56;;;;;;;3.90;1.00;;;;;;;22.86;29.22;98780.86;433789;1268;108647;-47
2022/05/16 14:58:05;;;;;;;6.50;0.90;;;;;;;22.75;29.05;98778.34;433956;1268;96666;-45
2022/05/16 15:08:19;;;;;;;3.70;1.00;;;;;;;22.75;28.80;98771.07;433126;1270;111084;-47
2022/05/16 15:28:33;;;;;;;2.10;1.40;;;;;;;22.68;28.61;98764.05;433688;1267;97891;-43
2022/05/16 15:38:40;;;;;;;3.50;1.20;;;;;;;22.50;28.57;98757.73;433658;1268;111175;-47
2022/05/16 15:48:48;;;;;;;7.50;1.40;;;;;;;22.40;28.61;98744.01;433537;1267;108616;-42
2022/05/16 15:58:55;;;;;;;22.10;2.70;;;;;;;22.33;28.73;98736.20;433109;1267;96673;-44
2022/05/16 16:09:03;;;;;;;5.50;1.40;;;;;;;22.26;28.45;98727.44;433755;1267;110789;-44
2022/05/16 16:19:11;;;;;;;22.80;2.30;;;;;;;22.15;28.90;98715.27;433760;1267;108781;-44
2022/05/16 16:29:20;;;;;;;11.10;1.80;;;;;;;21.98;29.40;98714.09;433804;1267;97933;-46
2022/05/16 16:49:34;;;;;;;3.30;1.40;;;;;;;21.65;30.15;98705.46;433729;1267;108567;-44
2022/05/16 16:59:41;;;;;;;3.90;1.80;;;;;;;21.49;30.67;98708.79;433795;1267;97503;-43
2022/05/16 17:09:49;;;;;;;11.80;2.40;;;;;;;21.39;31.13;98711.36;433246;1270;109009;-43
2022/05/16 17:30:03;;;;;;;2.90;1.50;;;;;;;20.89;32.86;98714.48;433632;1267;97993;-43
2022/05/16 17:40:13;;;;;;;7.20;3.80;;;;;;;20.63;33.61;98716.73;433610;1266;111092;-47
2022/05/16 17:50:20;;;;;;;8.10;3.30;;;;;;;20.26;34.50;98716.09;433693;1267;108412;-47
2022/05/16 18:00:27;;;;;;;4.70;3.00;;;;;;;19.82;35.32;98727.15;433635;1265;97987;-47
2022/05/16 18:12:41;;;;;;;6.20;2.90;;;;;;;19.43;36.12;98730.45;433659;1267;108999;-47
2022/05/16 18:20:59;;;;;;;8.40;4.20;;;;;;;18.94;36.90;98733.88;433710;1267;96633;-43
2022/05/16 18:31:08;;;;;;;8.20;3.80;;;;;;;18.56;37.78;98741.98;433485;1269;111198;-44
2022/05/16 18:41:17;;;;;;;;;;;;;;;18.22;38.38;98752.84;433691;1267;108841;-42
2022/05/16 18:51:27;;;;;;;11.20;5.50;;;;;;;17.77;38.96;98770.38;433648;1267;97591;-44
2022/05/16 19:01:34;;;;;;;10.80;4.70;;;;;;;17.44;39.42;98776.06;433589;1267;111075;-47
2022/05/16 19:11:44;;;;;;;10.80;4.90;;;;;;;17.11;40.04;98782.45;433671;1267;109013;-48
2022/05/16 19:21:53;;;;;;;10.50;4.80;;;;;;;16.80;40.66;98782.30;433545;1267;97929;-44
2022/05/16 19:32:03;;;;;;;9.00;4.10;;;;;;;16.59;41.25;98782.62;433650;1267;109010;-45
2022/05/16 19:42:11;;;;;;;7.80;4.90;;;;;;;16.48;41.67;98795.18;433810;1266;97904;-45
2022/05/16 19:52:19;;;;;;;5.80;3.40;;;;;;;16.35;42.11;98812.30;433751;1267;110044;-41
2022/05/16 20:02:27;;;;;;;8.50;4.20;;;;;;;16.10;42.76;98823.02;433769;1267;108804;-42
2022/05/16 20:12:34;;;;;;;12.00;5.30;;;;;;;15.87;43.07;98820.27;433586;1267;97513;-44
2022/05/16 20:33:06;;;;;;;8.00;4.80;;;;;;;15.53;43.78;98829.54;433756;1267;108829;-44
2022/05/16 20:43:13;;;;;;;11.70;5.10;;;;;;;15.36;44.31;98831.80;433756;1267;98016;-42
2022/05/16 20:53:22;;;;;;;9.20;4.50;;;;;;;15.19;44.86;98828.75;433582;1267;111104;-45
2022/05/16 21:03:29;;;;;;;7.90;4.10;;;;;;;15.10;45.10;98825.52;433658;1267;108770;-41
2022/05/16 21:13:36;;;;;;;7.50;3.20;;;;;;;15.00;45.13;98833.23;433707;1267;97018;-41
2022/05/16 21:23:44;;;;;;;5.80;2.90;;;;;;;14.93;44.99;98838.91;433607;1267;111226;-47
2022/05/16 21:33:51;;;;;;;9.30;3.50;;;;;;;14.79;45.09;98834.52;433745;1267;108421;-44
2022/05/16 21:54:24;;;;;;;8.70;3.40;;;;;;;14.71;45.51;98833.27;433784;1267;111013;-47
2022/05/16 22:04:32;;;;;;;7.90;3.90;;;;;;;14.65;45.80;98823.56;433696;1267;108660;-46
2022/05/16 22:14:39;;;;;;;5.10;2.90;;;;;;;14.71;45.98;98824.23;433679;1267;97894;-46
2022/05/16 22:24:47;;;;;;;7.00;4.00;;;;;;;14.73;46.14;98820.68;433738;1267;111100;-42
2022/05/16 22:34:54;;;;;;;14.40;4.00;;;;;;;14.64;46.27;98817.98;433631;1267;109236;-47
2022/05/16 22:45:01;;;;;;;3.90;2.80;;;;;;;14.66;46.43;98817.72;429704;1267;5383381;-47
2022/05/16 22:55:08;;;;;;;9.60;4.30;;;;;;;14.66;46.52;98813.73;433653;1267;108912;-48
2022/05/16 23:05:15;;;;;;;5.30;3.30;;;;;;;14.58;46.77;98807.21;434235;1268;98032;-43
2022/05/16 23:15:20;;;;;;;17.80;3.90;;;;;;;14.49;46.85;98801.86;434360;1267;110893;-43
2022/05/16 23:25:28;;;;;;;5.40;3.10;;;;;;;14.44;46.91;98805.17;434183;1266;108765;-42
2022/05/16 23:35:36;;;;;;;7.00;4.00;;;;;;;14.50;47.05;98800.11;434164;1267;97481;-50
2022/05/16 23:45:43;;;;;;;9.00;3.80;;;;;;;14.46;47.08;98798.04;434247;1265;111483;-49
2022/05/16 23:55:51;;;;;;;8.20;3.50;;;;;;;14.34;47.24;98797.30;434252;1267;108777;-45
